Time;durP1;ratioP1;P1;durP2;ratioP2;P2;SDS_P1;SDS_P2;PMS_P1;PMS_P2;Temp;Humidity;BMP_temperature;BMP_pressure;BME280_temperature;BME280_humidity;BME280_pressure;Samples;Min_cycle;Max_cycle;Signal;HPM_P1;HPM_P2
2023/07/26 00:01:32;;;;;;;6.72;2.58;;;14.30;99.90;;;;;;5032923;28;20065;-68
2023/07/26 00:03:58;;;;;;;3.88;2.40;;;14.30;99.90;;;;;;5031504;28;20107;-68
2023/07/26 00:06:25;;;;;;;4.07;2.40;;;14.30;99.90;;;;;;5033043;28;20040;-67
2023/07/26 00:08:51;;;;;;;4.22;2.40;;;14.30;99.90;;;;;;5032616;28;20485;-68
2023/07/26 00:11:17;;;;;;;6.50;2.72;;;14.30;99.90;;;;;;5031251;28;20088;-68
2023/07/26 00:13:43;;;;;;;3.08;2.40;;;14.30;99.90;;;;;;5025521;28;20053;-68
2023/07/26 00:16:09;;;;;;;3.45;2.38;;;14.30;99.90;;;;;;5031255;28;20549;-68
2023/07/26 00:18:35;;;;;;;4.15;2.38;;;14.30;99.90;;;;;;5032315;28;20042;-68
2023/07/26 00:21:01;;;;;;;4.63;2.20;;;14.30;99.90;;;;;;5030450;28;20033;-68
2023/07/26 00:23:26;;;;;;;4.57;2.70;;;14.30;99.90;;;;;;5030753;28;20059;-67
2023/07/26 00:25:52;;;;;;;4.13;2.60;;;14.30;99.90;;;;;;5031981;28;20060;-68
2023/07/26 00:28:17;;;;;;;5.80;2.50;;;14.30;99.90;;;;;;5029555;28;20418;-68
2023/07/26 00:30:43;;;;;;;3.90;2.90;;;14.30;99.90;;;;;;5032318;28;20037;-68
2023/07/26 00:33:09;;;;;;;3.58;2.65;;;14.30;99.90;;;;;;5030379;28;20047;-68
2023/07/26 00:35:40;;;;;;;3.83;2.60;;;14.20;99.90;;;;;;5028406;28;20042;-68
2023/07/26 00:38:06;;;;;;;4.80;3.22;;;14.30;99.90;;;;;;5032862;28;20411;-68
2023/07/26 00:40:32;;;;;;;3.78;2.65;;;14.30;99.90;;;;;;5033315;28;20037;-68
2023/07/26 00:42:58;;;;;;;3.15;2.45;;;14.20;99.90;;;;;;5031721;28;20159;-68
2023/07/26 00:45:25;;;;;;;4.22;2.95;;;14.30;99.90;;;;;;5032358;28;20125;-68
2023/07/26 00:47:51;;;;;;;5.07;2.58;;;14.30;99.90;;;;;;5031077;28;20403;-67
2023/07/26 00:50:18;;;;;;;4.35;2.63;;;14.30;99.90;;;;;;5012975;28;20041;-68
2023/07/26 00:52:44;;;;;;;3.05;2.75;;;14.30;99.90;;;;;;5023654;28;20048;-68
2023/07/26 00:55:10;;;;;;;3.80;2.92;;;14.40;99.90;;;;;;5031910;28;20430;-68
2023/07/26 00:57:36;;;;;;;5.28;2.85;;;14.30;99.90;;;;;;5032846;28;20048;-68
2023/07/26 01:00:02;;;;;;;3.88;3.10;;;14.30;99.90;;;;;;5031872;28;20044;-68
2023/07/26 01:02:28;;;;;;;4.90;2.80;;;14.40;99.90;;;;;;5032207;28;20134;-68
2023/07/26 01:04:54;;;;;;;3.92;2.90;;;14.40;99.90;;;;;;5031707;28;20116;-68
2023/07/26 01:07:27;;;;;;;4.72;2.95;;;14.40;99.90;;;;;;5032771;28;20480;-68
2023/07/26 01:10:13;;;;;;;6.53;3.10;;;14.40;99.90;;;;;;5031732;28;20040;-67
2023/07/26 01:12:51;;;;;;;4.35;3.10;;;14.30;99.90;;;;;;5031904;28;20037;-68
2023/07/26 01:15:16;;;;;;;6.07;2.90;;;14.30;99.90;;;;;;5021506;28;20411;-68
2023/07/26 01:17:44;;;;;;;4.45;2.88;;;14.30;99.90;;;;;;5032509;28;20048;-68
2023/07/26 01:20:12;;;;;;;5.25;2.90;;;14.30;99.90;;;;;;5032658;28;20041;-68
2023/07/26 01:22:37;;;;;;;3.75;2.70;;;14.30;99.90;;;;;;5031276;28;20132;-68
2023/07/26 01:25:03;;;;;;;4.30;2.63;;;14.30;99.90;;;;;;5023084;28;20483;-68
2023/07/26 01:27:29;;;;;;;4.85;2.70;;;14.30;99.90;;;;;;5032484;28;20064;-68
2023/07/26 01:29:56;;;;;;;3.83;2.70;;;14.30;99.90;;;;;;5031340;28;20419;-68
2023/07/26 01:32:24;;;;;;;6.80;3.38;;;14.30;99.90;;;;;;5028184;28;20040;-68
2023/07/26 01:34:50;;;;;;;4.88;2.83;;;14.30;99.90;;;;;;5028500;28;20034;-68
2023/07/26 01:37:17;;;;;;;4.20;2.85;;;14.30;99.90;;;;;;5030933;28;20106;-68
2023/07/26 01:39:44;;;;;;;4.90;3.45;;;14.30;99.90;;;;;;5028063;28;20041;-68
2023/07/26 01:42:10;;;;;;;5.72;3.00;;;14.30;99.90;;;;;;5030367;28;20445;-68
2023/07/26 01:44:38;;;;;;;6.72;3.88;;;14.30;99.90;;;;;;5030889;28;20033;-68
2023/07/26 01:47:04;;;;;;;6.53;3.80;;;14.30;99.90;;;;;;5028686;28;20033;-68
2023/07/26 01:49:30;;;;;;;3.85;3.40;;;14.30;99.90;;;;;;5029672;28;20508;-68
2023/07/26 01:51:55;;;;;;;4.60;3.05;;;14.30;99.90;;;;;;5028944;28;20056;-67
2023/07/26 01:54:21;;;;;;;5.75;3.38;;;14.20;99.90;;;;;;5028514;28;20041;-68
2023/07/26 01:56:47;;;;;;;4.03;3.17;;;14.20;99.90;;;;;;5025982;28;20042;-68
2023/07/26 01:59:13;;;;;;;4.50;3.22;;;14.20;99.90;;;;;;5016944;28;20049;-68
2023/07/26 02:01:39;;;;;;;4.70;3.45;;;14.20;99.90;;;;;;5029110;28;20048;-68
2023/07/26 02:04:04;;;;;;;7.60;3.90;;;14.10;99.90;;;;;;5028649;28;20037;-67
2023/07/26 02:06:30;;;;;;;5.50;3.90;;;14.10;99.90;;;;;;5027795;28;20068;-67
2023/07/26 02:08:56;;;;;;;5.38;3.28;;;14.00;99.90;;;;;;5024226;28;20053;-67
2023/07/26 02:11:21;;;;;;;7.57;3.90;;;14.00;99.90;;;;;;5022177;28;20048;-68
2023/07/26 02:13:47;;;;;;;6.65;3.50;;;13.90;99.90;;;;;;5029094;28;20514;-67
2023/07/26 02:16:12;;;;;;;6.32;4.05;;;14.00;99.90;;;;;;5021901;28;20040;-68
2023/07/26 02:18:38;;;;;;;7.10;3.95;;;14.00;99.90;;;;;;5030194;28;20113;-67
2023/07/26 02:21:04;;;;;;;5.53;3.88;;;13.90;99.90;;;;;;5023283;28;20499;-67
2023/07/26 02:23:30;;;;;;;5.03;3.58;;;13.90;99.90;;;;;;5027377;28;20108;-68
2023/07/26 02:25:55;;;;;;;5.60;4.20;;;13.80;99.90;;;;;;5030666;28;20037;-68
2023/07/26 02:28:21;;;;;;;5.22;4.07;;;13.80;99.90;;;;;;5031548;28;20045;-68
2023/07/26 02:30:46;;;;;;;5.30;4.13;;;13.80;99.90;;;;;;5029609;28;20042;-67
2023/07/26 02:33:12;;;;;;;8.15;4.78;;;13.80;99.90;;;;;;5030006;28;20061;-67
2023/07/26 02:35:38;;;;;;;6.25;4.50;;;13.80;99.90;;;;;;5033073;28;20037;-68
2023/07/26 02:38:03;;;;;;;6.82;4.70;;;13.70;99.90;;;;;;5035245;28;20483;-68
2023/07/26 02:40:29;;;;;;;5.70;4.65;;;13.70;99.90;;;;;;5035730;28;20041;-68
2023/07/26 02:42:55;;;;;;;6.38;4.75;;;13.70;99.90;;;;;;5033984;28;20037;-67
2023/07/26 02:45:21;;;;;;;5.55;4.22;;;13.70;99.90;;;;;;5034467;28;20045;-68
2023/07/26 02:47:46;;;;;;;6.63;4.47;;;13.70;99.90;;;;;;5035063;28;20109;-67
2023/07/26 02:50:12;;;;;;;7.70;4.97;;;13.70;99.90;;;;;;5031240;28;20040;-67
2023/07/26 02:52:38;;;;;;;8.15;4.43;;;13.60;99.90;;;;;;5030074;28;20065;-67
2023/07/26 02:55:04;;;;;;;6.93;4.40;;;13.60;99.90;;;;;;5035069;28;20044;-67
2023/07/26 02:57:29;;;;;;;5.05;4.55;;;13.60;99.90;;;;;;5035422;28;20459;-67
2023/07/26 02:59:55;;;;;;;7.57;4.95;;;13.60;99.90;;;;;;5033636;28;20044;-67
2023/07/26 03:02:21;;;;;;;7.80;5.00;;;13.50;99.90;;;;;;5027973;28;20037;-68
2023/07/26 03:04:47;;;;;;;5.18;4.50;;;13.50;99.90;;;;;;5033793;28;20056;-68
2023/07/26 03:07:12;;;;;;;7.80;4.60;;;13.50;99.90;;;;;;5034427;28;20495;-67
2023/07/26 03:09:38;;;;;;;5.45;4.38;;;13.50;99.90;;;;;;5034726;28;20462;-68
2023/07/26 03:12:04;;;;;;;7.35;4.10;;;13.50;99.90;;;;;;5033419;28;20044;-67
2023/07/26 03:14:29;;;;;;;9.68;4.38;;;13.50;99.90;;;;;;5034707;28;20048;-67
2023/07/26 03:16:55;;;;;;;6.72;4.53;;;13.50;99.90;;;;;;5033388;28;20403;-68
2023/07/26 03:19:21;;;;;;;5.97;4.03;;;13.50;99.90;;;;;;5033833;28;20442;-68
2023/07/26 03:21:46;;;;;;;6.47;4.57;;;13.40;99.90;;;;;;5031233;28;20041;-67
2023/07/26 03:24:12;;;;;;;4.50;3.97;;;13.40;99.90;;;;;;5034333;28;20041;-68
2023/07/26 03:26:38;;;;;;;6.18;4.40;;;13.40;99.90;;;;;;5032574;28;20037;-67
2023/07/26 03:29:03;;;;;;;6.55;3.95;;;13.40;99.90;;;;;;5034583;28;20038;-68
2023/07/26 03:31:29;;;;;;;5.03;3.83;;;13.40;99.90;;;;;;5031728;28;20034;-68
2023/07/26 03:33:55;;;;;;;5.82;3.97;;;13.40;99.90;;;;;;5032824;28;20163;-67
2023/07/26 03:36:20;;;;;;;5.40;3.92;;;13.40;99.90;;;;;;5031830;28;20041;-67
2023/07/26 03:38:46;;;;;;;5.22;4.28;;;13.30;99.90;;;;;;5034489;28;20038;-68
2023/07/26 03:41:11;;;;;;;5.20;4.10;;;13.30;99.90;;;;;;5031676;28;20040;-68
2023/07/26 03:43:37;;;;;;;5.07;3.90;;;13.30;99.90;;;;;;5033701;28;20123;-67
2023/07/26 03:46:03;;;;;;;5.85;4.47;;;13.20;99.90;;;;;;5033880;28;20087;-68
2023/07/26 03:48:28;;;;;;;7.97;4.30;;;13.20;99.90;;;;;;5032517;28;20087;-67
2023/07/26 03:50:54;;;;;;;6.30;4.20;;;13.20;99.90;;;;;;5032223;28;20044;-67
2023/07/26 03:53:20;;;;;;;6.60;4.00;;;13.20;99.90;;;;;;5033348;28;20141;-68
2023/07/26 03:55:45;;;;;;;6.28;4.03;;;13.10;99.90;;;;;;5028132;28;20048;-67
2023/07/26 03:58:11;;;;;;;7.32;4.15;;;13.10;99.90;;;;;;5033266;28;20064;-67
2023/07/26 04:00:37;;;;;;;7.25;4.13;;;13.10;99.90;;;;;;5031319;28;20044;-68
2023/07/26 04:03:02;;;;;;;5.00;4.30;;;13.20;99.90;;;;;;5033508;28;20037;-67
2023/07/26 04:05:28;;;;;;;5.88;4.18;;;13.20;99.90;;;;;;5031417;28;20487;-67
2023/07/26 04:07:54;;;;;;;5.50;4.00;;;13.20;99.90;;;;;;5033098;28;20389;-68
2023/07/26 04:10:19;;;;;;;6.13;3.70;;;13.20;99.90;;;;;;5030252;28;20137;-67
2023/07/26 04:12:45;;;;;;;6.40;3.72;;;13.20;99.90;;;;;;5031204;28;20051;-67
2023/07/26 04:15:11;;;;;;;7.28;4.10;;;13.20;99.90;;;;;;5030490;28;20531;-67
2023/07/26 04:17:36;;;;;;;5.72;4.22;;;13.20;99.90;;;;;;5032681;28;20076;-67
2023/07/26 04:20:02;;;;;;;4.97;3.75;;;13.20;99.90;;;;;;5026367;28;20053;-68
2023/07/26 04:22:28;;;;;;;7.97;4.22;;;13.30;99.90;;;;;;5031879;28;20037;-67
2023/07/26 04:24:54;;;;;;;4.88;4.10;;;13.20;99.90;;;;;;5033372;28;20030;-67
2023/07/26 04:27:19;;;;;;;6.93;3.88;;;13.30;99.90;;;;;;5031882;28;20037;-68
2023/07/26 04:29:46;;;;;;;5.50;4.22;;;13.30;99.90;;;;;;5029228;28;20491;-67
2023/07/26 04:32:11;;;;;;;6.90;4.05;;;13.30;99.90;;;;;;5027955;28;20495;-68
2023/07/26 04:34:37;;;;;;;4.25;3.80;;;13.30;99.90;;;;;;5033264;28;20036;-68
2023/07/26 04:37:02;;;;;;;5.68;4.03;;;13.40;99.90;;;;;;5032628;28;20064;-68
2023/07/26 04:39:28;;;;;;;5.85;4.20;;;13.40;99.90;;;;;;5031226;28;20510;-68
2023/07/26 04:41:54;;;;;;;8.95;4.30;;;13.40;99.90;;;;;;5030507;28;20038;-67
2023/07/26 04:44:19;;;;;;;7.22;3.97;;;13.40;99.90;;;;;;5032368;28;20033;-68
2023/07/26 04:46:45;;;;;;;5.00;4.10;;;13.50;99.90;;;;;;5033177;28;20048;-68
2023/07/26 04:49:11;;;;;;;5.65;3.97;;;13.50;99.90;;;;;;5031693;28;20040;-68
2023/07/26 04:51:36;;;;;;;6.60;3.92;;;13.50;99.90;;;;;;5031549;28;20049;-68
2023/07/26 04:54:02;;;;;;;5.00;3.80;;;13.60;99.90;;;;;;5030008;28;20500;-67
2023/07/26 04:56:28;;;;;;;6.85;4.25;;;13.60;99.90;;;;;;5027808;28;20491;-68
2023/07/26 04:58:53;;;;;;;4.75;3.92;;;13.60;99.90;;;;;;5030554;28;20080;-67
2023/07/26 05:01:19;;;;;;;7.95;3.90;;;13.60;99.90;;;;;;5024640;28;20053;-68
2023/07/26 05:03:46;;;;;;;6.25;4.43;;;13.60;99.90;;;;;;5030850;28;20045;-68
2023/07/26 05:06:12;;;;;;;5.07;4.00;;;13.50;99.90;;;;;;5030804;28;20450;-67
2023/07/26 05:08:38;;;;;;;4.90;3.80;;;13.50;99.90;;;;;;5031227;28;20037;-67
2023/07/26 05:11:05;;;;;;;6.00;4.00;;;13.50;99.90;;;;;;5029126;28;20037;-67
2023/07/26 05:13:30;;;;;;;7.45;3.97;;;13.50;99.90;;;;;;5026452;28;20514;-67
2023/07/26 05:15:56;;;;;;;8.02;4.88;;;13.50;99.90;;;;;;5028577;28;20033;-68
2023/07/26 05:18:22;;;;;;;5.28;3.97;;;13.50;99.90;;;;;;5031417;28;20055;-68
2023/07/26 05:20:51;;;;;;;6.70;4.07;;;13.50;99.90;;;;;;5026574;28;20095;-70
2023/07/26 05:23:17;;;;;;;7.07;4.18;;;13.50;99.90;;;;;;4999233;28;20041;-70
2023/07/26 05:25:43;;;;;;;6.25;4.18;;;13.50;99.90;;;;;;5031482;28;20045;-69
2023/07/26 05:28:09;;;;;;;8.20;4.32;;;13.50;99.90;;;;;;5032102;28;20037;-69
2023/07/26 05:30:39;;;;;;;6.70;4.50;;;13.50;99.90;;;;;;5024540;22;20119;-71
2023/07/26 05:33:05;;;;;;;7.13;4.70;;;13.50;99.90;;;;;;5010701;28;20121;-70
2023/07/26 05:35:31;;;;;;;6.03;4.13;;;13.60;99.90;;;;;;5011924;28;20042;-71
2023/07/26 05:37:56;;;;;;;6.45;4.43;;;13.60;99.90;;;;;;5009230;28;20118;-70
2023/07/26 05:40:22;;;;;;;6.97;5.00;;;13.70;99.90;;;;;;5004934;28;20577;-70
2023/07/26 05:42:48;;;;;;;7.10;4.72;;;13.80;99.90;;;;;;5009478;28;20048;-70
2023/07/26 05:45:13;;;;;;;6.68;4.57;;;13.80;99.90;;;;;;5009489;28;20045;-71
2023/07/26 05:47:39;;;;;;;10.32;4.95;;;13.90;99.90;;;;;;5007120;28;20034;-70
2023/07/26 05:50:06;;;;;;;7.30;4.22;;;14.00;99.90;;;;;;5012216;28;20041;-70
2023/07/26 05:52:32;;;;;;;5.43;4.32;;;14.00;99.90;;;;;;5012114;28;20034;-70
2023/07/26 05:54:58;;;;;;;7.55;4.70;;;14.00;99.90;;;;;;5010526;28;20152;-70
2023/07/26 05:57:24;;;;;;;8.18;4.60;;;14.10;99.90;;;;;;5009400;28;20033;-71
2023/07/26 05:59:49;;;;;;;5.57;4.32;;;14.10;99.90;;;;;;5009977;28;20091;-70
2023/07/26 06:02:15;;;;;;;6.78;4.28;;;14.10;99.90;;;;;;5012186;28;20037;-71
2023/07/26 06:04:41;;;;;;;9.75;4.88;;;14.20;99.90;;;;;;5011722;28;20038;-70
2023/07/26 06:07:07;;;;;;;7.38;4.22;;;14.20;99.90;;;;;;5008723;28;20034;-71
2023/07/26 06:09:33;;;;;;;5.68;4.70;;;14.30;99.90;;;;;;5010875;28;20038;-71
2023/07/26 06:11:59;;;;;;;7.20;4.45;;;14.30;99.90;;;;;;5003251;28;20045;-70
2023/07/26 06:14:25;;;;;;;8.77;4.68;;;14.30;99.90;;;;;;5005660;28;20037;-70
2023/07/26 06:16:51;;;;;;;8.07;4.78;;;14.40;99.90;;;;;;5010505;28;20115;-70
2023/07/26 06:19:17;;;;;;;8.25;4.38;;;14.40;99.90;;;;;;5011504;28;20045;-70
2023/07/26 06:21:43;;;;;;;7.13;4.53;;;14.50;99.90;;;;;;5011349;28;20083;-70
2023/07/26 06:24:08;;;;;;;12.50;5.55;;;14.50;99.90;;;;;;5007557;28;20125;-72
2023/07/26 06:26:34;;;;;;;7.10;4.80;;;14.50;99.90;;;;;;5003660;28;20045;-72
2023/07/26 06:29:00;;;;;;;6.85;4.50;;;14.40;99.90;;;;;;5010385;28;20037;-72
2023/07/26 06:31:25;;;;;;;7.85;5.50;;;14.40;99.90;;;;;;5011284;28;20041;-71
2023/07/26 06:33:51;;;;;;;8.05;4.65;;;14.40;99.90;;;;;;5009906;28;20044;-71
2023/07/26 06:36:16;;;;;;;6.88;5.07;;;14.40;99.90;;;;;;5001886;28;20046;-71
2023/07/26 06:38:42;;;;;;;7.53;4.90;;;14.40;99.90;;;;;;5008738;28;20112;-71
2023/07/26 06:41:08;;;;;;;8.95;5.18;;;14.40;99.90;;;;;;5008184;28;20518;-71
2023/07/26 06:43:33;;;;;;;8.48;5.25;;;14.40;99.90;;;;;;5007857;28;20456;-72
2023/07/26 06:45:59;;;;;;;8.38;5.13;;;14.40;99.90;;;;;;5010920;28;20089;-71
2023/07/26 06:48:25;;;;;;;9.93;5.72;;;14.30;99.90;;;;;;5010064;28;20042;-71
2023/07/26 06:50:50;;;;;;;7.57;4.90;;;14.40;99.90;;;;;;5010717;28;20563;-71
2023/07/26 06:53:16;;;;;;;7.97;4.97;;;14.30;99.90;;;;;;5008829;28;20116;-71
2023/07/26 06:55:41;;;;;;;6.32;5.10;;;14.40;99.90;;;;;;5011294;28;20038;-71
2023/07/26 06:58:07;;;;;;;8.10;4.80;;;14.30;99.90;;;;;;5001894;28;20047;-72
2023/07/26 07:00:33;;;;;;;10.90;5.63;;;14.30;99.90;;;;;;5010344;28;20460;-72
2023/07/26 07:03:00;;;;;;;7.95;5.03;;;14.40;99.90;;;;;;5009724;28;20032;-72
2023/07/26 07:05:27;;;;;;;10.82;5.68;;;14.50;99.90;;;;;;5011139;28;20431;-72
2023/07/26 07:07:53;;;;;;;8.15;5.20;;;14.50;99.90;;;;;;5011535;28;20121;-72
2023/07/26 07:10:19;;;;;;;6.22;5.25;;;14.60;99.90;;;;;;5011095;28;20076;-71
2023/07/26 07:12:45;;;;;;;7.93;5.28;;;14.60;99.90;;;;;;5009740;28;20108;-71
2023/07/26 07:15:10;;;;;;;6.90;5.35;;;14.70;99.90;;;;;;5010812;28;20468;-72
2023/07/26 07:17:36;;;;;;;6.78;5.22;;;14.80;99.90;;;;;;5011246;28;20045;-72
2023/07/26 07:20:05;;;;;;;9.45;5.22;;;14.90;99.90;;;;;;5011092;28;20647;-71
2023/07/26 07:22:31;;;;;;;7.72;5.40;;;15.10;99.90;;;;;;5013919;28;20057;-72
2023/07/26 07:24:56;;;;;;;9.40;6.03;;;15.20;99.90;;;;;;5014676;28;20034;-72
2023/07/26 07:27:23;;;;;;;6.65;5.13;;;15.10;99.90;;;;;;5013719;28;20107;-71
2023/07/26 07:29:49;;;;;;;7.95;5.40;;;15.10;99.90;;;;;;5013968;28;20416;-71
2023/07/26 07:32:15;;;;;;;7.47;5.65;;;15.00;99.90;;;;;;5014564;28;20038;-71
2023/07/26 07:34:40;;;;;;;8.25;5.88;;;14.90;99.90;;;;;;5012710;28;20045;-71
2023/07/26 07:37:06;;;;;;;7.43;6.15;;;14.80;99.90;;;;;;4996130;28;20038;-71
2023/07/26 07:39:32;;;;;;;8.38;5.82;;;14.80;99.90;;;;;;5011942;28;20045;-74
2023/07/26 07:41:58;;;;;;;8.82;6.28;;;14.70;99.90;;;;;;5013442;28;20044;-74
2023/07/26 07:44:24;;;;;;;9.30;6.72;;;14.70;99.90;;;;;;5012786;28;20476;-75
2023/07/26 07:46:50;;;;;;;8.82;6.40;;;14.70;99.90;;;;;;5013139;28;20109;-74
2023/07/26 07:49:15;;;;;;;10.57;6.25;;;14.70;99.90;;;;;;5016848;28;20034;-71
2023/07/26 07:51:42;;;;;;;9.68;6.60;;;14.70;99.90;;;;;;5012538;28;20558;-72
2023/07/26 07:54:08;;;;;;;8.90;6.68;;;14.70;99.90;;;;;;5012175;28;20117;-71
2023/07/26 07:56:33;;;;;;;9.35;6.85;;;14.60;99.90;;;;;;5008902;28;20128;-70
2023/07/26 07:58:59;;;;;;;9.10;6.40;;;14.60;99.90;;;;;;5008621;28;20073;-71
2023/07/26 08:01:24;;;;;;;8.43;6.47;;;14.50;99.90;;;;;;5011908;28;20081;-71
2023/07/26 08:03:50;;;;;;;10.18;6.18;;;14.40;99.90;;;;;;5012189;28;20052;-70
2023/07/26 08:06:17;;;;;;;10.38;6.05;;;14.40;99.90;;;;;;5011806;28;20057;-71
2023/07/26 08:08:43;;;;;;;12.27;6.38;;;14.40;99.90;;;;;;5007719;28;20038;-71
2023/07/26 08:11:08;;;;;;;7.95;5.40;;;14.40;99.90;;;;;;5013839;28;20100;-71
2023/07/26 08:13:35;;;;;;;10.45;6.20;;;14.40;99.90;;;;;;5012870;28;20064;-71
2023/07/26 08:16:01;;;;;;;7.22;5.47;;;14.50;99.90;;;;;;5006833;28;20035;-71
2023/07/26 08:18:27;;;;;;;7.90;4.88;;;14.50;99.90;;;;;;5008223;28;20045;-71
2023/07/26 08:20:52;;;;;;;6.93;4.72;;;14.50;99.90;;;;;;5012714;28;20042;-72
2023/07/26 08:23:18;;;;;;;8.20;5.38;;;14.60;99.90;;;;;;5012932;28;20038;-71
2023/07/26 08:25:43;;;;;;;4.95;4.00;;;14.70;99.90;;;;;;5012859;28;20030;-71
2023/07/26 08:28:09;;;;;;;4.00;2.92;;;14.70;99.90;;;;;;5009740;28;20038;-72
2023/07/26 08:30:35;;;;;;;5.10;3.33;;;14.80;99.90;;;;;;5005214;28;20037;-71
2023/07/26 08:33:01;;;;;;;3.83;3.28;;;14.70;99.90;;;;;;5002689;28;20038;-71
2023/07/26 08:35:27;;;;;;;4.85;3.45;;;14.80;99.90;;;;;;5013673;28;20037;-72
2023/07/26 08:37:52;;;;;;;6.63;3.83;;;14.80;99.90;;;;;;5011417;28;20165;-72
2023/07/26 08:40:19;;;;;;;6.68;4.40;;;14.90;99.90;;;;;;5012505;28;20498;-72
2023/07/26 08:42:45;;;;;;;6.30;4.00;;;15.00;99.90;;;;;;5011462;28;20053;-72
2023/07/26 08:45:11;;;;;;;5.05;3.70;;;15.10;99.90;;;;;;5009367;28;20041;-72
2023/07/26 08:47:37;;;;;;;6.88;3.50;;;15.10;99.90;;;;;;5005312;28;20091;-72
2023/07/26 08:50:04;;;;;;;7.28;4.25;;;15.20;99.90;;;;;;5012691;28;20030;-71
2023/07/26 08:52:31;;;;;;;4.53;3.63;;;15.20;99.90;;;;;;5012304;28;20042;-72
2023/07/26 08:54:57;;;;;;;7.00;3.45;;;15.20;99.90;;;;;;5004866;28;20038;-72
2023/07/26 08:57:26;;;;;;;4.15;2.97;;;15.30;99.90;;;;;;5012546;28;20125;-72
2023/07/26 08:59:52;;;;;;;4.43;2.78;;;15.40;99.90;;;;;;5007386;28;20029;-71
2023/07/26 09:02:19;;;;;;;4.05;2.50;;;15.50;99.90;;;;;;5011884;28;20180;-71
2023/07/26 09:04:46;;;;;;;4.10;2.30;;;15.80;99.90;;;;;;5010495;28;20092;-72
2023/07/26 09:07:13;;;;;;;4.05;2.40;;;16.10;99.90;;;;;;5008904;28;20566;-71
2023/07/26 09:09:39;;;;;;;1.73;1.60;;;16.50;99.90;;;;;;5005268;28;20073;-71
2023/07/26 09:12:07;;;;;;;2.15;1.67;;;16.70;99.90;;;;;;5009783;28;20061;-71
2023/07/26 09:14:34;;;;;;;3.25;1.60;;;16.90;99.90;;;;;;5009184;28;20038;-71
2023/07/26 09:17:02;;;;;;;3.20;1.77;;;17.10;99.90;;;;;;5011610;28;20044;-71
2023/07/26 09:19:38;;;;;;;2.00;1.60;;;17.30;99.90;;;;;;5012201;28;20408;-71
2023/07/26 09:22:07;;;;;;;3.38;2.15;;;17.50;99.90;;;;;;5012553;28;20061;-71
2023/07/26 09:24:35;;;;;;;2.78;1.88;;;17.60;99.90;;;;;;5010533;28;20061;-71
2023/07/26 09:27:09;;;;;;;3.53;2.40;;;17.70;99.90;;;;;;5011823;28;20053;-71
2023/07/26 09:29:36;;;;;;;3.42;2.50;;;17.70;99.90;;;;;;5012609;28;20049;-71
2023/07/26 09:32:03;;;;;;;3.38;2.58;;;17.80;99.90;;;;;;5012795;28;20049;-71
2023/07/26 09:34:29;;;;;;;4.40;2.67;;;17.70;99.90;;;;;;5012418;28;20045;-71
2023/07/26 09:36:56;;;;;;;4.25;2.70;;;17.70;99.90;;;;;;5002237;28;20070;-72
2023/07/26 09:39:25;;;;;;;3.00;2.70;;;17.70;99.90;;;;;;5011970;28;20049;-71
2023/07/26 09:42:10;;;;;;;4.82;3.00;;;17.80;99.90;;;;;;5012366;28;20049;-71
2023/07/26 09:44:36;;;;;;;5.15;2.92;;;17.90;99.90;;;;;;5012131;28;20088;-71
2023/07/26 09:47:03;;;;;;;3.78;2.70;;;18.00;99.90;;;;;;5012372;28;20042;-71
2023/07/26 09:49:32;;;;;;;5.75;3.20;;;18.20;99.90;;;;;;5011633;28;20462;-71
2023/07/26 09:51:59;;;;;;;4.07;3.10;;;18.30;99.90;;;;;;5012047;28;20213;-71
2023/07/26 09:54:30;;;;;;;3.78;2.97;;;18.40;99.90;;;;;;5005434;28;20460;-71
2023/07/26 09:56:58;;;;;;;4.50;3.15;;;18.40;99.90;;;;;;5010099;28;20446;-71
2023/07/26 09:59:29;;;;;;;6.72;2.95;;;18.50;99.90;;;;;;5012331;28;20080;-71
2023/07/26 10:01:58;;;;;;;3.05;2.78;;;18.80;99.90;;;;;;5012394;28;20046;-72
2023/07/26 10:04:50;;;;;;;3.80;2.97;;;19.00;99.90;;;;;;5012364;28;20109;-72
2023/07/26 10:07:17;;;;;;;4.60;2.85;;;19.10;99.90;;;;;;5010243;28;20046;-71
2023/07/26 10:09:45;;;;;;;3.90;2.80;;;19.10;99.90;;;;;;5010600;28;20123;-71
2023/07/26 10:12:12;;;;;;;3.47;2.45;;;19.10;99.90;;;;;;5002921;28;20052;-71
2023/07/26 10:14:39;;;;;;;5.13;2.40;;;19.00;99.90;;;;;;5011900;28;20069;-72
2023/07/26 10:17:06;;;;;;;3.83;2.50;;;18.80;99.90;;;;;;5012019;28;20069;-72
2023/07/26 10:19:32;;;;;;;3.90;2.53;;;18.80;99.90;;;;;;5012232;28;20049;-71
2023/07/26 10:21:58;;;;;;;5.15;2.40;;;18.70;99.90;;;;;;5012198;28;20111;-71
2023/07/26 10:24:25;;;;;;;3.85;2.50;;;18.70;99.90;;;;;;5011275;28;20076;-72
2023/07/26 10:26:53;;;;;;;3.58;2.50;;;18.60;99.90;;;;;;5011945;28;20136;-71
2023/07/26 10:29:20;;;;;;;4.78;2.88;;;18.60;99.90;;;;;;5011743;28;20041;-71
2023/07/26 10:31:46;;;;;;;3.50;2.45;;;18.70;99.90;;;;;;5011373;28;20510;-71
2023/07/26 10:34:21;;;;;;;4.20;2.58;;;18.90;99.90;;;;;;5011337;28;20492;-71
2023/07/26 10:36:46;;;;;;;4.15;2.92;;;19.00;99.90;;;;;;5012126;28;20060;-71
2023/07/26 10:39:14;;;;;;;6.30;3.00;;;19.20;99.90;;;;;;5011158;28;20492;-71
2023/07/26 10:41:52;;;;;;;4.82;2.92;;;19.20;99.90;;;;;;5010904;28;20042;-71
2023/07/26 10:44:17;;;;;;;5.22;2.95;;;19.20;99.90;;;;;;5003758;28;20057;-71
2023/07/26 10:46:46;;;;;;;4.03;2.63;;;19.20;99.90;;;;;;5011998;28;20230;-71
2023/07/26 10:49:32;;;;;;;3.85;2.85;;;19.40;99.90;;;;;;5011247;28;20044;-71
2023/07/26 10:52:03;;;;;;;5.38;3.08;;;19.30;99.90;;;;;;5011912;28;20033;-71
2023/07/26 10:54:32;;;;;;;;;;;19.20;99.90;;;;;;5011779;28;20511;-71
2023/07/26 10:57:26;;;;;;;3.53;2.30;;;19.20;99.90;;;;;;5013800;28;19918;-71
2023/07/26 11:00:23;;;;;;;5.03;2.75;;;19.50;99.90;;;;;;5013658;28;20054;-71
2023/07/26 11:02:58;;;;;;;4.45;2.50;;;19.60;99.90;;;;;;5015413;28;20507;-71
2023/07/26 11:05:25;;;;;;;4.22;2.78;;;19.80;99.90;;;;;;5015425;28;20056;-71
2023/07/26 11:08:00;;;;;;;5.05;2.60;;;19.90;99.90;;;;;;5015433;28;20041;-71
2023/07/26 11:10:35;;;;;;;3.00;2.20;;;20.10;99.90;;;;;;5015310;28;20496;-71
2023/07/26 11:13:18;;;;;;;3.65;2.00;;;20.20;99.90;;;;;;5014119;28;20488;-71
2023/07/26 11:15:49;;;;;;;6.03;2.40;;;20.10;99.90;;;;;;5014139;28;20488;-71
2023/07/26 11:18:17;;;;;;;3.50;2.05;;;20.00;99.90;;;;;;5015396;28;20052;-70
2023/07/26 11:21:20;;;;;;;3.65;2.30;;;19.90;99.90;;;;;;5011322;28;20052;-71
2023/07/26 11:23:46;;;;;;;4.32;2.13;;;19.70;99.90;;;;;;5009775;28;20041;-71
2023/07/26 11:26:11;;;;;;;4.00;2.40;;;19.60;99.90;;;;;;5014989;28;20038;-71
2023/07/26 11:28:38;;;;;;;3.08;2.03;;;19.50;99.90;;;;;;5015123;28;20164;-71
2023/07/26 11:31:04;;;;;;;5.40;1.80;;;19.20;99.90;;;;;;5070394;23;20059;-69
2023/07/26 11:33:39;;;;;;;2.85;1.42;;;18.70;99.90;;;;;;5073657;28;20037;-69
2023/07/26 11:36:07;;;;;;;2.03;1.60;;;18.10;99.90;;;;;;5074326;28;20040;-69
2023/07/26 11:38:33;;;;;;;2.17;1.13;;;17.70;99.90;;;;;;5074792;28;20032;-70
2023/07/26 11:40:59;;;;;;;2.40;1.23;;;17.40;99.90;;;;;;5073697;28;20581;-69
2023/07/26 11:43:26;;;;;;;1.20;1.10;;;17.20;99.90;;;;;;5073687;28;20505;-69
2023/07/26 11:45:53;;;;;;;2.00;1.00;;;17.20;99.90;;;;;;5074400;28;20050;-69
2023/07/26 11:48:19;;;;;;;2.45;1.00;;;17.30;99.90;;;;;;5074033;28;20051;-69
2023/07/26 11:50:45;;;;;;;1.98;1.30;;;17.50;99.90;;;;;;5074010;28;20036;-69
2023/07/26 11:53:12;;;;;;;3.50;1.80;;;17.80;99.90;;;;;;5074385;28;20042;-69
2023/07/26 11:55:40;;;;;;;5.88;2.28;;;18.00;99.90;;;;;;5073931;28;20111;-69
2023/07/26 11:58:09;;;;;;;4.63;2.50;;;18.30;99.90;;;;;;5073837;28;20120;-69
2023/07/26 12:00:46;;;;;;;4.70;2.25;;;18.50;99.90;;;;;;5071194;28;20119;-69
2023/07/26 12:03:12;;;;;;;4.10;2.20;;;18.50;99.90;;;;;;5073650;28;20121;-69
2023/07/26 12:05:42;;;;;;;2.78;2.10;;;18.60;99.90;;;;;;5073067;28;20121;-69
2023/07/26 12:08:08;;;;;;;3.40;1.63;;;18.70;99.90;;;;;;5072726;28;20040;-69
2023/07/26 12:10:39;;;;;;;3.00;1.20;;;18.90;99.90;;;;;;5072844;28;20568;-69
2023/07/26 12:13:18;;;;;;;2.05;1.20;;;19.10;99.90;;;;;;5074521;28;20085;-68
2023/07/26 12:15:55;;;;;;;2.65;1.15;;;19.30;99.90;;;;;;5073879;28;20127;-69
2023/07/26 12:18:22;;;;;;;2.03;1.17;;;19.50;99.90;;;;;;5071581;28;20449;-69
2023/07/26 12:21:01;;;;;;;2.88;1.40;;;19.70;99.90;;;;;;5072131;28;20041;-70
2023/07/26 12:23:28;;;;;;;2.90;1.30;;;19.90;99.90;;;;;;5073499;28;20040;-69
2023/07/26 12:25:56;;;;;;;2.47;1.30;;;20.00;99.90;;;;;;5073333;28;20041;-69
2023/07/26 12:28:25;;;;;;;2.40;1.20;;;20.00;99.90;;;;;;5073700;28;20041;-69
2023/07/26 12:30:54;;;;;;;2.20;1.17;;;20.00;99.90;;;;;;5070967;28;20040;-70
2023/07/26 12:33:20;;;;;;;2.28;1.23;;;20.00;99.90;;;;;;5071929;28;20051;-69
2023/07/26 12:35:46;;;;;;;2.83;1.20;;;20.10;99.90;;;;;;5072854;28;20530;-70
2023/07/26 12:38:21;;;;;;;3.10;1.13;;;20.00;99.90;;;;;;5071914;28;20063;-70
2023/07/26 12:40:47;;;;;;;2.78;1.35;;;19.90;99.90;;;;;;5073322;28;20120;-70
2023/07/26 12:43:22;;;;;;;4.05;1.33;;;19.90;99.90;;;;;;5073167;28;20524;-69
2023/07/26 12:45:48;;;;;;;2.10;1.50;;;20.00;99.90;;;;;;5073250;28;20440;-70
2023/07/26 12:48:13;;;;;;;2.17;1.30;;;20.10;99.90;;;;;;5067463;28;20037;-70